Time;durP1;ratioP1;P1;durP2;ratioP2;P2;SDS_P1;SDS_P2;PMS_P1;PMS_P2;Temp;Humidity;BMP_temperature;BMP_pressure;BME280_temperature;BME280_humidity;BME280_pressure;Samples;Min_cycle;Max_cycle;Signal;HPM_P1;HPM_P2
2023/01/15 00:01:25;;;;;;;9.80;4.77;;;;;;;10.08;73.45;99595.72;5053071;28;20649;-89
2023/01/15 00:03:52;;;;;;;12.27;5.00;;;;;;;10.11;73.32;99595.59;5052979;28;20184;-88
2023/01/15 00:06:18;;;;;;;15.37;5.47;;;;;;;10.13;72.85;99593.78;5052229;28;20254;-88
2023/01/15 00:08:44;;;;;;;12.93;5.40;;;;;;;10.10;72.93;99596.50;5053050;28;20193;-89
2023/01/15 00:11:10;;;;;;;10.57;4.47;;;;;;;9.99;73.71;99598.72;5053313;28;20165;-89
2023/01/15 00:13:35;;;;;;;10.83;4.97;;;;;;;9.99;73.39;99605.72;5053293;28;20264;-89
2023/01/15 00:16:05;;;;;;;11.97;4.67;;;;;;;9.97;73.60;99597.09;5051978;28;20664;-89
2023/01/15 00:18:31;;;;;;;15.60;4.87;;;;;;;9.97;73.79;99604.94;5053207;28;20196;-88
2023/01/15 00:21:08;;;;;;;16.03;5.47;;;;;;;10.02;73.61;99606.47;5052041;28;20612;-88
2023/01/15 00:29:05;;;;;;;10.00;3.73;;;;;;;9.97;73.70;99597.09;5053306;28;20617;-89
2023/01/15 00:31:34;;;;;;;12.77;4.17;;;;;;;9.94;73.53;99603.31;5052855;28;20213;-89
2023/01/15 00:33:59;;;;;;;8.67;3.53;;;;;;;9.88;74.19;99614.91;5052832;28;20182;-88
2023/01/15 00:36:25;;;;;;;10.83;4.83;;;;;;;9.91;73.52;99603.44;5052723;28;20539;-88
2023/01/15 00:38:51;;;;;;;10.57;4.23;;;;;;;9.90;73.71;99607.00;5052573;28;20270;-88
2023/01/15 00:41:17;;;;;;;14.07;4.70;;;;;;;9.91;73.64;99603.44;5053920;28;20185;-88
2023/01/15 00:43:42;;;;;;;9.30;3.50;;;;;;;9.89;73.95;99613.13;5057144;28;20276;-88
2023/01/15 00:46:08;;;;;;;12.93;4.60;;;;;;;9.74;74.47;99609.41;5056785;28;20166;-89
2023/01/15 00:48:34;;;;;;;10.77;4.50;;;;;;;9.78;74.43;99612.72;5056503;28;20186;-88
2023/01/15 00:51:00;;;;;;;7.77;3.60;;;;;;;9.72;74.15;99607.78;5056442;28;20177;-88
2023/01/15 00:53:25;;;;;;;9.03;4.50;;;;;;;9.72;74.81;99618.25;5056407;28;20189;-88
2023/01/15 00:55:51;;;;;;;11.07;4.40;;;;;;;9.74;74.84;99605.94;5055344;28;20208;-88
2023/01/15 00:58:17;;;;;;;9.30;3.87;;;;;;;9.80;74.01;99601.28;5056837;28;20178;-88
2023/01/15 01:00:42;;;;;;;10.33;4.30;;;;;;;9.86;73.80;99603.66;5056253;28;20188;-88
2023/01/15 01:03:07;;;;;;;8.23;3.30;;;;;;;9.74;74.13;99598.06;5056486;28;20184;-88
2023/01/15 01:05:33;;;;;;;9.67;4.63;;;;;;;9.76;74.38;99594.47;5055171;28;20187;-88
2023/01/15 01:07:59;;;;;;;8.17;4.33;;;;;;;9.79;74.08;99603.97;5056373;28;20278;-87
2023/01/15 01:10:25;;;;;;;10.27;4.47;;;;;;;9.75;73.80;99594.53;5056116;28;20211;-87
2023/01/15 01:12:51;;;;;;;8.30;3.97;;;;;;;9.73;74.24;99591.13;5056066;28;20174;-88
2023/01/15 01:15:20;;;;;;;8.13;4.17;;;;;;;9.75;74.16;99592.75;5056187;28;20211;-88
2023/01/15 01:17:45;;;;;;;8.27;3.47;;;;;;;9.70;74.52;99588.63;5054987;28;20539;-88
2023/01/15 01:20:16;;;;;;;8.43;3.80;;;;;;;9.73;74.18;99583.28;5055854;28;20261;-87
2023/01/15 01:22:42;;;;;;;7.93;3.40;;;;;;;9.77;73.93;99592.72;5055829;28;20173;-87
2023/01/15 01:25:08;;;;;;;9.77;4.40;;;;;;;9.80;73.99;99584.75;5055456;28;20182;-88
2023/01/15 01:27:34;;;;;;;8.60;3.80;;;;;;;9.81;73.80;99582.03;5055797;28;20259;-88
2023/01/15 01:29:59;;;;;;;10.30;4.03;;;;;;;9.81;74.09;99586.41;5055757;28;20615;-87
2023/01/15 01:32:25;;;;;;;10.20;4.33;;;;;;;9.81;73.60;99582.03;5054730;28;20192;-87
2023/01/15 01:34:50;;;;;;;8.50;4.23;;;;;;;9.80;74.12;99589.97;5055675;28;20173;-88
2023/01/15 01:37:16;;;;;;;9.43;4.43;;;;;;;9.85;73.62;99588.00;5054602;28;20409;-88
2023/01/15 01:39:41;;;;;;;8.47;4.37;;;;;;;9.82;74.29;99598.59;5056291;28;20193;-88
2023/01/15 01:42:12;;;;;;;10.90;4.00;;;;;;;9.81;73.95;99589.03;5055829;28;20224;-88
2023/01/15 01:44:37;;;;;;;11.93;5.10;;;;;;;9.73;74.32;99591.13;5054821;28;20530;-88
2023/01/15 01:47:08;;;;;;;10.83;4.77;;;;;;;9.78;74.02;99594.41;5054486;28;20272;-88
2023/01/15 01:49:37;;;;;;;11.20;4.57;;;;;;;9.77;73.88;99590.09;5055612;28;20185;-88
2023/01/15 01:52:07;;;;;;;11.10;4.33;;;;;;;9.77;73.99;99595.34;5053455;28;20196;-88
2023/01/15 01:54:36;;;;;;;8.57;4.77;;;;;;;9.76;74.25;99589.25;5055283;28;20591;-88
2023/01/15 01:57:04;;;;;;;7.63;3.63;;;;;;;9.78;74.19;99589.16;5054200;28;20303;-88
2023/01/15 01:59:30;;;;;;;12.07;4.50;;;;;;;9.84;74.06;99583.69;5055494;28;20177;-88
2023/01/15 02:01:56;;;;;;;12.63;5.33;;;;;;;9.86;74.14;99589.69;5055707;28;20206;-88
2023/01/15 02:04:23;;;;;;;12.13;4.70;;;;;;;9.87;74.00;99587.03;5055163;28;20216;-88
2023/01/15 02:06:50;;;;;;;10.60;4.63;;;;;;;9.85;73.84;99586.22;5054934;28;20178;-88
2023/01/15 02:09:15;;;;;;;10.10;4.63;;;;;;;9.83;74.57;99581.97;5054348;28;20283;-88
2023/01/15 02:11:41;;;;;;;8.43;3.63;;;;;;;9.89;73.53;99593.03;5055238;28;20195;-88
2023/01/15 02:14:15;;;;;;;12.93;4.17;;;;;;;9.89;73.14;99586.94;5054952;28;20182;-88
2023/01/15 02:17:02;;;;;;;12.20;4.83;;;;;;;9.86;73.29;99592.31;5054870;28;20198;-88
2023/01/15 02:19:36;;;;;;;12.77;6.30;;;;;;;9.79;73.66;99593.50;5055059;28;20181;-88
2023/01/15 02:22:18;;;;;;;16.83;6.47;;;;;;;9.73;73.89;99594.59;5054905;28;20192;-88
2023/01/15 02:25:17;;;;;;;11.07;5.77;;;;;;;9.77;73.72;99600.56;5053837;28;20208;-88
2023/01/15 02:27:48;;;;;;;14.40;6.07;;;;;;;9.76;74.00;99593.63;5053775;28;20276;-88
2023/01/15 02:30:25;;;;;;;19.13;6.87;;;;;;;9.78;74.29;99602.25;5055242;28;20173;-89
2023/01/15 02:32:55;;;;;;;16.10;6.97;;;;;;;9.80;73.71;99600.44;5054873;28;20172;-89
2023/01/15 02:35:33;;;;;;;26.73;9.30;;;;;;;9.83;73.40;99600.28;5054577;28;20300;-88
2023/01/15 02:38:04;;;;;;;28.67;10.33;;;;;;;9.83;73.47;99598.53;5053459;28;20201;-89
2023/01/15 02:40:31;;;;;;;32.07;12.43;;;;;;;9.70;73.54;99599.97;5054470;28;20652;-89
2023/01/15 02:42:58;;;;;;;43.57;14.60;;;;;;;9.64;73.67;99594.97;5054436;28;20185;-89
2023/01/15 02:45:31;;;;;;;44.53;14.03;;;;;;;9.59;73.91;99599.53;5054574;28;20173;-88
2023/01/15 02:48:04;;;;;;;37.00;13.07;;;;;;;9.58;74.41;99600.47;5053408;28;20177;-89
2023/01/15 02:50:36;;;;;;;35.97;12.50;;;;;;;9.62;74.44;99603.81;5054581;28;20165;-88
2023/01/15 02:53:06;;;;;;;35.67;12.53;;;;;;;9.68;74.29;99595.72;5054217;28;20248;-88
2023/01/15 02:55:38;;;;;;;37.33;13.07;;;;;;;9.64;74.49;99594.16;5054390;28;20658;-89
2023/01/15 02:58:08;;;;;;;37.23;14.07;;;;;;;9.69;73.79;99598.28;5054125;28;20158;-88
2023/01/15 03:00:38;;;;;;;36.80;14.23;;;;;;;9.73;73.86;99594.59;5054549;28;20223;-89
2023/01/15 03:03:15;;;;;;;44.33;14.80;;;;;;;9.72;74.05;99599.91;5053251;28;20190;-89
2023/01/15 03:05:57;;;;;;;35.90;12.60;;;;;;;9.65;74.82;99591.44;5053076;28;20500;-89
2023/01/15 03:08:22;;;;;;;38.33;14.20;;;;;;;9.69;74.70;99592.19;5054229;28;20168;-89
2023/01/15 03:11:11;;;;;;;38.80;14.17;;;;;;;9.72;74.81;99587.66;5053882;28;20520;-89
2023/01/15 03:13:57;;;;;;;30.63;12.57;;;;;;;9.74;74.50;99591.09;5054422;28;20166;-88
2023/01/15 03:16:39;;;;;;;26.13;10.23;;;;;;;9.76;74.37;99596.25;5053951;28;20205;-89
2023/01/15 03:19:28;;;;;;;29.57;11.63;;;;;;;9.79;74.34;99581.25;5052807;28;20650;-89
2023/01/15 03:21:53;;;;;;;30.80;12.23;;;;;;;9.85;74.14;99578.38;5053962;28;20173;-89
2023/01/15 03:24:59;;;;;;;27.47;11.40;;;;;;;9.90;74.11;99586.03;5053574;28;20188;-89
2023/01/15 03:27:26;;;;;;;25.80;10.67;;;;;;;9.89;73.93;99584.34;5052210;28;20185;-89
2023/01/15 03:29:57;;;;;;;28.37;9.87;;;;;;;9.91;73.80;99585.13;5053704;28;20184;-89
2023/01/15 03:32:24;;;;;;;24.37;9.73;;;;;;;9.87;73.72;99591.41;5053810;28;20252;-89
2023/01/15 03:34:52;;;;;;;31.53;10.07;;;;;;;9.85;74.00;99583.59;5054081;28;20542;-89
2023/01/15 03:37:19;;;;;;;27.70;9.47;;;;;;;9.89;73.91;99586.94;5052818;28;20237;-89
2023/01/15 03:39:45;;;;;;;25.83;10.07;;;;;;;9.90;73.95;99586.03;5053384;28;20277;-89
2023/01/15 03:42:32;;;;;;;24.23;9.80;;;;;;;9.84;73.96;99586.28;5053446;28;20626;-89
2023/01/15 03:45:09;;;;;;;22.90;9.00;;;;;;;9.83;73.67;99580.22;5053421;28;20158;-89
2023/01/15 03:48:14;;;;;;;24.43;10.50;;;;;;;9.77;73.76;99588.31;5053632;28;20165;-88
2023/01/15 03:50:48;;;;;;;22.90;8.97;;;;;;;9.75;74.05;99590.16;5053623;28;20166;-88
2023/01/15 03:53:30;;;;;;;22.73;8.00;;;;;;;9.73;73.89;99591.13;5053288;28;20206;-88
2023/01/15 03:56:12;;;;;;;21.43;9.27;;;;;;;9.73;73.97;99591.97;5052237;28;20669;-89
2023/01/15 03:58:46;;;;;;;18.73;8.73;;;;;;;9.77;73.91;99600.56;5053008;28;20178;-89
2023/01/15 04:01:20;;;;;;;22.40;9.33;;;;;;;9.65;73.62;99599.31;5053710;28;20166;-89
2023/01/15 04:03:48;;;;;;;26.13;8.90;;;;;;;9.66;73.67;99593.16;5053416;28;20170;-89
2023/01/15 04:06:14;;;;;;;21.70;8.77;;;;;;;9.70;73.90;99593.88;5053178;28;20257;-88
2023/01/15 04:08:42;;;;;;;22.23;8.87;;;;;;;9.73;73.83;99589.38;5052204;28;20250;-89
2023/01/15 04:11:08;;;;;;;19.43;9.10;;;;;;;9.79;73.90;99593.50;5052200;28;20330;-88
2023/01/15 04:13:34;;;;;;;25.27;9.00;;;;;;;9.77;73.99;99597.97;5053355;28;20260;-89
2023/01/15 04:15:59;;;;;;;24.27;9.93;;;;;;;9.78;74.13;99600.50;5054678;28;20302;-89
2023/01/15 04:18:25;;;;;;;20.67;9.40;;;;;;;9.82;73.94;99598.59;5056783;28;20182;-89
2023/01/15 04:20:51;;;;;;;28.30;10.03;;;;;;;9.85;73.51;99593.25;5057664;28;20181;-89
2023/01/15 04:23:16;;;;;;;30.03;10.33;;;;;;;9.87;73.70;99602.75;5057369;28;20265;-89
2023/01/15 04:25:42;;;;;;;21.87;9.93;;;;;;;9.86;73.56;99595.78;5057068;28;20239;-89
2023/01/15 04:28:08;;;;;;;26.50;9.93;;;;;;;9.86;73.65;99595.78;5056047;28;20183;-88
2023/01/15 04:30:34;;;;;;;26.07;9.93;;;;;;;9.86;73.44;99602.78;5057166;28;20174;-89
2023/01/15 04:33:00;;;;;;;25.17;9.80;;;;;;;9.82;73.15;99603.84;5056883;28;20193;-89
2023/01/15 04:35:25;;;;;;;23.47;9.93;;;;;;;9.89;73.41;99600.91;5056748;28;20229;-89
2023/01/15 04:37:56;;;;;;;29.20;9.30;;;;;;;9.94;73.23;99599.84;5056297;28;20262;-88
2023/01/15 04:45:51;;;;;;;23.13;9.63;;;;;;;9.92;72.73;99613.00;5057467;28;20196;-89
2023/01/15 04:48:16;;;;;;;26.73;9.30;;;;;;;9.94;72.51;99605.06;5056887;28;20252;-89
2023/01/15 04:50:41;;;;;;;37.33;12.00;;;;;;;10.01;72.76;99617.00;5055638;28;20185;-89
2023/01/15 04:53:07;;;;;;;26.63;10.50;;;;;;;10.02;72.47;99611.69;5056811;28;20186;-89
2023/01/15 04:55:32;;;;;;;25.13;9.93;;;;;;;10.04;72.40;99619.47;5056409;28;20201;-89
2023/01/15 04:57:58;;;;;;;21.07;9.33;;;;;;;9.98;72.39;99617.13;5056920;28;20181;-89
2023/01/15 05:00:23;;;;;;;20.40;9.23;;;;;;;9.99;72.40;99617.06;5056304;28;20635;-89
2023/01/15 05:02:49;;;;;;;22.53;9.40;;;;;;;9.98;72.52;99610.16;5056351;28;20178;-89
2023/01/15 05:05:15;;;;;;;27.37;10.97;;;;;;;9.97;72.46;99612.81;5056548;28;20197;-89
2023/01/15 05:07:40;;;;;;;19.33;8.33;;;;;;;9.96;72.55;99617.19;5055356;28;20173;-89
2023/01/15 05:10:06;;;;;;;22.50;8.47;;;;;;;9.93;72.60;99606.88;5056394;28;20258;-89
2023/01/15 05:12:31;;;;;;;20.87;10.37;;;;;;;9.90;72.34;99613.06;5056100;28;20182;-88
2023/01/15 05:14:57;;;;;;;21.53;9.90;;;;;;;9.87;72.63;99618.44;5056137;28;20188;-89
2023/01/15 05:17:22;;;;;;;27.47;10.43;;;;;;;9.90;72.70;99622.72;5054977;28;20301;-89
2023/01/15 05:19:47;;;;;;;19.03;7.80;;;;;;;9.89;72.55;99623.59;5056018;28;20192;-89
2023/01/15 05:22:13;;;;;;;22.57;9.47;;;;;;;9.93;72.56;99616.50;5055038;28;20221;-88
2023/01/15 05:24:38;;;;;;;25.37;9.40;;;;;;;9.94;72.76;99619.03;5055914;28;20193;-89
2023/01/15 05:27:04;;;;;;;25.63;9.77;;;;;;;9.95;72.62;99620.75;5055030;28;20206;-88
2023/01/15 05:29:30;;;;;;;21.67;8.63;;;;;;;9.97;72.65;99629.38;5054936;28;20264;-90
2023/01/15 05:31:55;;;;;;;23.43;9.10;;;;;;;10.00;72.58;99620.53;5055750;28;20258;-88
2023/01/15 05:34:21;;;;;;;26.23;10.70;;;;;;;9.98;72.44;99631.09;5054774;28;20202;-89
2023/01/15 05:36:46;;;;;;;35.03;13.13;;;;;;;9.96;72.28;99630.28;5054762;28;20198;-89
2023/01/15 05:39:12;;;;;;;51.90;19.47;;;;;;;9.97;72.22;99632.00;5055634;28;20283;-89
2023/01/15 05:41:50;;;;;;;46.50;18.10;;;;;;;9.93;72.29;99632.19;5056233;28;20186;-89
2023/01/15 05:44:20;;;;;;;50.67;16.87;;;;;;;9.90;72.41;99643.66;5054721;28;20243;-89
2023/01/15 05:46:46;;;;;;;46.00;15.23;;;;;;;9.91;72.63;99640.09;5055799;28;20256;-89
2023/01/15 05:49:14;;;;;;;38.20;14.40;;;;;;;9.91;72.89;99640.09;5055531;28;20277;-89
2023/01/15 05:51:40;;;;;;;33.77;11.90;;;;;;;9.94;72.51;99641.75;5055887;28;20225;-89
2023/01/15 05:54:10;;;;;;;26.63;11.87;;;;;;;9.93;72.39;99642.66;5055439;28;20182;-89
2023/01/15 05:56:36;;;;;;;20.47;9.60;;;;;;;9.93;72.59;99651.38;5055487;28;20342;-89
2023/01/15 05:59:03;;;;;;;19.50;8.83;;;;;;;9.94;72.81;99644.34;5054389;28;20639;-89
2023/01/15 06:01:28;;;;;;;18.10;7.47;;;;;;;9.96;72.51;99643.38;5055529;28;20184;-89
2023/01/15 06:03:57;;;;;;;21.90;8.77;;;;;;;9.97;72.63;99647.72;5054389;28;20178;-89
2023/01/15 06:06:23;;;;;;;19.70;8.30;;;;;;;9.93;72.55;99643.53;5054223;28;20546;-89
2023/01/15 06:08:48;;;;;;;19.60;8.53;;;;;;;9.94;72.87;99649.59;5055748;28;20173;-89
2023/01/15 06:11:14;;;;;;;19.63;8.47;;;;;;;9.96;72.64;99646.00;5055332;28;20201;-89
2023/01/15 06:13:40;;;;;;;19.03;7.63;;;;;;;9.98;72.43;99645.94;5055280;28;20173;-89
2023/01/15 06:16:06;;;;;;;18.80;8.73;;;;;;;10.01;72.50;99645.81;5055495;28;20202;-89
2023/01/15 06:18:32;;;;;;;16.97;6.90;;;;;;;10.01;72.46;99640.59;5054901;28;20173;-90
2023/01/15 06:21:05;;;;;;;14.87;6.83;;;;;;;10.03;72.49;99643.97;5053986;28;20189;-90
2023/01/15 06:23:35;;;;;;;16.57;7.23;;;;;;;10.03;72.39;99644.84;5054909;28;20173;-89
2023/01/15 06:26:02;;;;;;;15.40;6.50;;;;;;;10.04;72.23;99640.44;5055078;28;20665;-89
2023/01/15 06:28:28;;;;;;;21.33;8.83;;;;;;;10.02;72.18;99642.28;5054747;28;20202;-89
2023/01/15 06:30:53;;;;;;;15.03;7.47;;;;;;;10.05;72.20;99639.53;5054649;28;20201;-89
2023/01/15 06:33:19;;;;;;;14.53;6.93;;;;;;;10.05;71.97;99640.38;5053704;28;20190;-89
2023/01/15 06:35:45;;;;;;;13.17;5.80;;;;;;;10.04;71.29;99636.06;5054866;28;20670;-89
2023/01/15 06:38:10;;;;;;;17.00;6.53;;;;;;;10.01;71.79;99638.78;5054049;28;20259;-89
2023/01/15 06:40:36;;;;;;;16.87;7.27;;;;;;;10.05;71.62;99637.75;5054788;28;20231;-89
2023/01/15 06:48:50;;;;;;;16.43;6.23;;;;;;;9.96;71.17;99640.75;5053279;28;20183;-89
2023/01/15 06:51:19;;;;;;;17.30;6.70;;;;;;;9.96;71.54;99642.53;5053213;28;20271;-89
2023/01/15 06:53:45;;;;;;;22.70;8.67;;;;;;;9.96;71.81;99647.78;5053659;28;20197;-88
2023/01/15 06:56:13;;;;;;;21.20;7.80;;;;;;;9.89;72.22;99649.78;5054059;28;20194;-88
2023/01/15 06:58:39;;;;;;;25.67;7.97;;;;;;;9.85;71.90;99651.69;5054357;28;20257;-89
2023/01/15 07:01:12;;;;;;;23.40;8.60;;;;;;;9.90;71.92;99651.50;5054145;28;20249;-88
2023/01/15 07:03:38;;;;;;;18.77;7.10;;;;;;;9.82;72.47;99656.22;5053992;28;20256;-88
2023/01/15 07:06:09;;;;;;;32.60;9.30;;;;;;;9.82;72.52;99651.81;5054054;28;20622;-88
2023/01/15 07:08:34;;;;;;;27.33;8.53;;;;;;;9.88;72.89;99650.69;5054121;28;20211;-89
2023/01/15 07:11:08;;;;;;;30.73;9.03;;;;;;;9.84;72.79;99655.22;5053890;28;20695;-89
2023/01/15 07:13:35;;;;;;;25.43;9.37;;;;;;;9.83;72.73;99664.00;5054310;28;20243;-88
2023/01/15 07:16:01;;;;;;;36.90;10.17;;;;;;;9.86;72.16;99657.78;5052805;28;20276;-89
2023/01/15 07:18:29;;;;;;;31.23;10.77;;;;;;;9.85;72.36;99656.09;5053692;28;20253;-89
2023/01/15 07:20:56;;;;;;;32.43;9.33;;;;;;;9.85;72.38;99651.69;5053654;28;20646;-88
2023/01/15 07:23:23;;;;;;;39.47;10.40;;;;;;;9.88;72.53;99661.16;5052745;28;20188;-88
2023/01/15 07:25:50;;;;;;;30.53;10.07;;;;;;;9.87;72.81;99664.72;5054130;28;20231;-88
2023/01/15 07:28:16;;;;;;;34.23;10.03;;;;;;;9.83;72.86;99658.75;5052969;28;20185;-88
2023/01/15 07:30:41;;;;;;;28.77;11.20;;;;;;;9.85;72.85;99664.75;5053622;28;20685;-88
2023/01/15 07:33:06;;;;;;;32.50;11.27;;;;;;;9.86;72.78;99663.88;5052818;28;20523;-89
2023/01/15 07:35:34;;;;;;;28.93;11.13;;;;;;;9.83;73.08;99665.75;5053402;28;20577;-88
2023/01/15 07:38:00;;;;;;;31.97;10.90;;;;;;;9.83;72.98;99664.00;5052666;28;20273;-88
2023/01/15 07:40:25;;;;;;;38.70;11.90;;;;;;;9.82;73.09;99661.44;5053673;28;20615;-88
2023/01/15 07:51:09;;;;;;;33.13;12.33;;;;;;;9.87;73.28;99659.47;5052566;28;20239;-89
2023/01/15 07:53:34;;;;;;;31.40;11.27;;;;;;;9.87;73.60;99662.97;5053414;28;20580;-88
2023/01/15 07:56:00;;;;;;;28.17;11.13;;;;;;;9.88;73.23;99656.78;5052140;28;20205;-88
2023/01/15 07:58:25;;;;;;;28.63;10.27;;;;;;;9.84;73.56;99670.94;5053403;28;20261;-89
2023/01/15 08:00:51;;;;;;;32.70;11.60;;;;;;;9.87;73.27;99673.44;5053425;28;20170;-88
2023/01/15 08:03:17;;;;;;;26.93;10.00;;;;;;;9.84;72.85;99672.69;5053120;28;20675;-88
2023/01/15 08:05:42;;;;;;;22.30;8.47;;;;;;;9.86;73.20;99668.25;5053068;28;20188;-88
2023/01/15 08:08:16;;;;;;;28.37;10.80;;;;;;;9.86;73.37;99673.47;5052987;28;20176;-89
2023/01/15 08:16:10;;;;;;;27.40;9.47;;;;;;;9.85;73.65;99688.31;5053492;28;20236;-88
2023/01/15 08:18:36;;;;;;;33.27;11.10;;;;;;;9.86;74.17;99682.19;5053240;28;20201;-88
2023/01/15 08:21:01;;;;;;;27.97;11.60;;;;;;;9.97;74.07;99688.75;5052934;28;20639;-88
2023/01/15 08:23:27;;;;;;;38.53;11.17;;;;;;;9.96;74.32;99682.66;5052873;28;20170;-88
2023/01/15 08:25:52;;;;;;;40.07;11.53;;;;;;;9.99;73.82;99685.16;5052904;28;20189;-88
2023/01/15 08:28:18;;;;;;;38.93;12.70;;;;;;;9.98;74.57;99688.72;5052923;28;20185;-89
2023/01/15 08:30:43;;;;;;;35.97;11.70;;;;;;;10.07;74.53;99690.94;5052859;28;20189;-89
2023/01/15 08:33:09;;;;;;;38.47;12.97;;;;;;;10.15;74.02;99686.25;5051847;28;20619;-89
2023/01/15 08:35:34;;;;;;;26.93;8.83;;;;;;;10.19;73.20;99692.22;5051779;28;20202;-89
2023/01/15 08:38:06;;;;;;;26.93;9.63;;;;;;;10.26;73.43;99691.91;5051613;28;20233;-89
2023/01/15 08:40:34;;;;;;;22.70;8.47;;;;;;;10.30;72.92;99690.84;5053270;28;20627;-89
2023/01/15 08:42:59;;;;;;;23.43;8.90;;;;;;;10.31;72.87;99686.47;5052992;28;20195;-89
2023/01/15 08:45:25;;;;;;;23.57;7.93;;;;;;;10.27;72.83;99685.72;5053012;28;20636;-88
2023/01/15 08:47:54;;;;;;;20.00;7.43;;;;;;;10.33;72.03;99685.47;5053011;28;20240;-89
2023/01/15 08:50:20;;;;;;;19.50;6.73;;;;;;;10.28;72.48;99684.81;5052712;28;20232;-89
2023/01/15 08:52:46;;;;;;;33.30;8.50;;;;;;;10.28;72.83;99687.44;5052667;28;20643;-88
2023/01/15 08:55:11;;;;;;;21.30;8.50;;;;;;;10.30;72.59;99689.97;5053163;28;20182;-89
2023/01/15 08:57:37;;;;;;;24.13;8.20;;;;;;;10.34;72.76;99686.31;5051652;28;20710;-89
2023/01/15 09:00:04;;;;;;;25.07;7.63;;;;;;;10.41;73.10;99672.91;5052536;28;20605;-89
2023/01/15 09:02:29;;;;;;;22.20;7.70;;;;;;;10.46;72.30;99676.16;5054960;28;20181;-89
2023/01/15 09:04:55;;;;;;;26.13;8.43;;;;;;;10.53;72.34;99670.66;5055347;28;20182;-89
2023/01/15 09:07:20;;;;;;;26.10;8.13;;;;;;;10.46;72.01;99676.16;5056448;28;20174;-89
2023/01/15 09:09:46;;;;;;;33.77;10.30;;;;;;;10.50;71.76;99674.28;5055280;28;20221;-89
2023/01/15 09:12:12;;;;;;;37.80;9.60;;;;;;;10.56;70.21;99667.91;5055187;28;20216;-89
2023/01/15 09:14:38;;;;;;;29.47;9.73;;;;;;;10.55;70.15;99669.69;5056085;28;20185;-89
2023/01/15 09:17:03;;;;;;;28.30;9.00;;;;;;;10.50;69.91;99666.41;5055341;28;20201;-89
2023/01/15 09:19:29;;;;;;;35.53;8.70;;;;;;;10.49;70.23;99664.69;5056229;28;20643;-88
2023/01/15 09:21:54;;;;;;;30.10;10.10;;;;;;;10.48;70.68;99663.84;5055985;28;20177;-89
2023/01/15 09:24:20;;;;;;;26.20;8.47;;;;;;;10.57;71.11;99657.34;5056196;28;20173;-89
2023/01/15 09:26:46;;;;;;;35.20;11.30;;;;;;;10.55;70.16;99655.72;5056459;28;20209;-89
2023/01/15 09:29:12;;;;;;;28.83;9.97;;;;;;;10.52;69.88;99658.47;5056385;28;20174;-89
2023/01/15 09:31:37;;;;;;;31.83;10.27;;;;;;;10.51;70.19;99651.53;5056329;28;20243;-88
2023/01/15 09:34:03;;;;;;;24.90;9.60;;;;;;;10.48;70.89;99652.53;5054805;28;20182;-89
2023/01/15 09:36:31;;;;;;;30.00;10.03;;;;;;;10.48;71.03;99653.34;5054667;28;20203;-89
2023/01/15 09:38:58;;;;;;;29.90;9.97;;;;;;;10.57;71.12;99649.47;5054736;28;20633;-89
2023/01/15 09:44:39;;;;;;;34.80;10.60;;;;;;;10.42;69.80;99643.16;5056426;28;20200;-89
2023/01/15 09:47:14;;;;;;;22.50;8.97;;;;;;;10.37;70.20;99639.03;5054673;28;20612;-89
2023/01/15 09:50:04;;;;;;;24.90;9.10;;;;;;;10.42;70.96;99630.06;5055453;28;20194;-89
2023/01/15 09:52:57;;;;;;;33.83;10.13;;;;;;;10.37;71.22;99629.41;5055426;28;20176;-89
2023/01/15 09:55:34;;;;;;;35.43;10.07;;;;;;;10.39;71.69;99624.94;5055547;28;20181;-88
2023/01/15 09:58:04;;;;;;;35.73;9.93;;;;;;;10.51;71.88;99622.72;5054346;28;20177;-89
2023/01/15 10:00:38;;;;;;;33.73;10.90;;;;;;;10.58;71.57;99618.88;5055739;28;20202;-88
2023/01/15 10:03:16;;;;;;;27.80;10.20;;;;;;;10.65;70.87;99608.06;5055517;28;20168;-88
2023/01/15 10:05:57;;;;;;;32.60;9.97;;;;;;;10.51;70.61;99599.94;5055737;28;20674;-89
2023/01/15 10:08:27;;;;;;;34.97;10.00;;;;;;;10.48;71.33;99606.19;5055392;28;20178;-89
2023/01/15 10:10:59;;;;;;;41.60;11.80;;;;;;;10.43;71.70;99602.06;5054399;28;20186;-89
2023/01/15 10:13:46;;;;;;;26.33;9.03;;;;;;;10.54;70.65;99598.97;5054197;28;20180;-88
2023/01/15 10:16:18;;;;;;;30.80;9.63;;;;;;;10.63;70.80;99598.56;5055211;28;20200;-88
2023/01/15 10:18:44;;;;;;;26.70;8.57;;;;;;;10.71;70.73;99593.81;5055179;28;20171;-89
2023/01/15 10:21:26;;;;;;;24.70;9.57;;;;;;;10.79;70.15;99589.94;5053846;28;20173;-89
2023/01/15 10:24:09;;;;;;;20.73;8.27;;;;;;;10.79;71.00;99586.44;5053860;28;20216;-89
2023/01/15 10:26:52;;;;;;;15.97;6.17;;;;;;;10.75;70.45;99585.72;5055010;28;20599;-87
2023/01/15 10:29:41;;;;;;;11.87;5.87;;;;;;;10.75;70.23;99587.50;5054653;28;20526;-89
2023/01/15 10:32:12;;;;;;;20.13;7.10;;;;;;;10.79;70.69;99581.22;5053803;28;20174;-89
2023/01/15 10:34:47;;;;;;;16.17;6.37;;;;;;;10.90;71.04;99571.91;5053572;28;20187;-89
2023/01/15 10:37:25;;;;;;;16.57;6.97;;;;;;;10.99;70.14;99565.38;5054725;28;20221;-89
2023/01/15 10:40:13;;;;;;;13.73;6.27;;;;;;;11.04;70.13;99553.75;5054468;28;20208;-89
2023/01/15 10:42:48;;;;;;;14.70;5.27;;;;;;;11.18;69.26;99560.97;5053943;28;20259;-89
2023/01/15 10:45:49;;;;;;;13.70;5.53;;;;;;;11.24;68.24;99550.16;5053409;28;20174;-89
2023/01/15 10:48:33;;;;;;;15.83;6.00;;;;;;;11.21;67.63;99555.56;5054182;28;20663;-89
2023/01/15 10:51:03;;;;;;;12.43;6.27;;;;;;;11.26;67.67;99543.06;5054832;28;20162;-89
2023/01/15 10:53:37;;;;;;;13.47;6.87;;;;;;;11.27;67.96;99539.50;5054189;28;20218;-89
2023/01/15 10:56:27;;;;;;;14.67;6.27;;;;;;;11.35;68.19;99542.59;5054429;28;20282;-89
2023/01/15 10:59:00;;;;;;;12.30;4.50;;;;;;;11.39;67.36;99533.69;5054676;28;20171;-89
2023/01/15 11:01:27;;;;;;;11.20;4.90;;;;;;;11.42;67.88;99538.78;5053114;28;20188;-89
2023/01/15 11:03:53;;;;;;;11.30;4.47;;;;;;;11.41;67.32;99534.44;5054309;28;20259;-89
2023/01/15 11:06:22;;;;;;;10.80;4.47;;;;;;;11.40;66.23;99527.47;5053081;28;20178;-89
2023/01/15 11:08:56;;;;;;;9.40;4.47;;;;;;;11.45;66.24;99525.47;5052964;28;20188;-88
2023/01/15 11:19:38;;;;;;;7.80;3.43;;;;;;;11.47;65.91;99500.03;5054346;28;20248;-89
2023/01/15 11:22:18;;;;;;;8.27;4.43;;;;;;;11.48;65.24;99493.81;5053971;28;20170;-89
2023/01/15 11:24:59;;;;;;;9.93;4.80;;;;;;;11.39;65.80;99496.94;5052927;28;20528;-89
2023/01/15 11:27:31;;;;;;;8.53;4.90;;;;;;;11.34;65.66;99488.44;5053436;28;20623;-89
2023/01/15 11:29:59;;;;;;;12.03;5.83;;;;;;;11.33;65.70;99481.47;5053552;28;20171;-89
2023/01/15 11:32:31;;;;;;;14.83;6.63;;;;;;;11.35;67.01;99479.63;5053481;28;20226;-89
2023/01/15 11:35:19;;;;;;;12.17;6.53;;;;;;;11.34;66.37;99477.94;5053458;28;20181;-88
2023/01/15 11:37:45;;;;;;;13.33;7.63;;;;;;;11.32;66.62;99474.53;5053679;28;20339;-89
2023/01/15 11:40:23;;;;;;;11.87;6.80;;;;;;;11.31;66.82;99472.00;5053967;28;20215;-89
2023/01/15 11:51:15;;;;;;;17.90;8.47;;;;;;;11.51;66.63;99469.19;5053293;28;20203;-88
2023/01/15 11:53:45;;;;;;;17.73;8.83;;;;;;;11.50;66.44;99468.34;5052550;28;20187;-89
2023/01/15 11:56:16;;;;;;;11.47;6.00;;;;;;;11.22;66.83;99467.19;5052142;28;20671;-89
2023/01/15 11:58:51;;;;;;;9.67;5.83;;;;;;;11.06;66.62;99456.59;5053270;28;20245;-89
2023/01/15 12:01:30;;;;;;;8.63;4.53;;;;;;;10.75;67.99;99461.66;5052380;28;20187;-89
2023/01/15 12:03:57;;;;;;;8.87;5.07;;;;;;;10.91;68.00;99460.84;5052163;28;20259;-89
2023/01/15 12:06:25;;;;;;;5.20;3.03;;;;;;;10.96;67.35;99453.59;5052081;28;20190;-89
2023/01/15 12:09:05;;;;;;;8.20;3.67;;;;;;;11.14;67.39;99446.56;5053036;28;20599;-89
2023/01/15 12:11:46;;;;;;;5.60;3.07;;;;;;;11.22;67.50;99439.19;5053306;28;20176;-89
2023/01/15 12:14:32;;;;;;;7.83;3.47;;;;;;;11.13;67.16;99434.41;5052952;28;20174;-89
2023/01/15 12:17:12;;;;;;;5.53;3.20;;;;;;;11.09;66.36;99430.22;5053174;28;20195;-89
2023/01/15 12:19:40;;;;;;;5.93;2.97;;;;;;;11.17;67.57;99430.69;5052318;28;20368;-89
2023/01/15 12:22:21;;;;;;;6.70;3.20;;;;;;;11.42;66.69;99428.53;5053178;28;20175;-88
2023/01/15 12:24:54;;;;;;;5.27;2.77;;;;;;;11.52;67.18;99432.38;5053489;28;20581;-89
2023/01/15 12:27:57;;;;;;;6.00;2.43;;;;;;;11.44;67.46;99437.19;5052041;28;20199;-89
2023/01/15 12:30:28;;;;;;;6.13;2.90;;;;;;;11.46;66.72;99430.06;5053116;28;20180;-90
2023/01/15 12:33:03;;;;;;;8.47;2.87;;;;;;;11.60;66.48;99427.59;5053012;28;20236;-89